createdAt,value
2022-07-28T00:01:08.205Z,26.90
2022-07-28T00:03:35.282Z,26.80
2022-07-28T00:06:02.493Z,26.80
2022-07-28T00:08:29.576Z,26.90
2022-07-28T00:10:56.710Z,26.90
2022-07-28T00:13:23.943Z,26.80
2022-07-28T00:15:51.148Z,26.80
2022-07-28T00:18:18.286Z,26.80
2022-07-28T00:20:45.433Z,26.80
2022-07-28T00:23:12.516Z,26.80
2022-07-28T00:25:39.645Z,26.80
2022-07-28T00:28:06.785Z,26.80
2022-07-28T00:30:33.915Z,26.80
2022-07-28T00:33:01.057Z,26.80
2022-07-28T00:35:30.500Z,26.80
2022-07-28T00:37:58.737Z,26.80
2022-07-28T00:40:47.246Z,26.80
2022-07-28T00:43:15.439Z,26.80
2022-07-28T00:45:42.956Z,26.80
2022-07-28T00:48:10.040Z,26.80
2022-07-28T00:50:40.124Z,26.80
2022-07-28T00:53:07.484Z,26.80
2022-07-28T00:56:04.084Z,26.80
2022-07-28T00:58:23.302Z,26.80
2022-07-28T01:00:50.396Z,26.80
2022-07-28T01:03:18.358Z,26.80
2022-07-28T01:06:16.707Z,26.80
2022-07-28T01:09:14.071Z,26.80
2022-07-28T01:12:20.881Z,26.80
2022-07-28T01:14:56.513Z,26.80
2022-07-28T01:17:48.591Z,26.80
2022-07-28T01:20:26.028Z,26.80
2022-07-28T01:23:32.844Z,26.80
2022-07-28T01:26:32.571Z,26.80
2022-07-28T01:29:21.985Z,26.80
2022-07-28T01:31:59.840Z,26.80
2022-07-28T01:34:33.453Z,26.80
2022-07-28T01:37:10.372Z,26.80
2022-07-28T01:39:40.960Z,26.80
2022-07-28T01:42:10.404Z,26.80
2022-07-28T01:44:41.873Z,26.70
2022-07-28T01:47:10.699Z,26.70
2022-07-28T01:49:39.141Z,26.70
2022-07-28T01:52:08.358Z,26.70
2022-07-28T01:54:38.907Z,26.70
2022-07-28T01:57:08.942Z,26.70
2022-07-28T01:59:40.148Z,26.70
2022-07-28T02:02:09.151Z,26.70
2022-07-28T02:04:39.580Z,26.70
2022-07-28T02:07:08.027Z,26.70
2022-07-28T02:09:36.231Z,26.70
2022-07-28T02:12:04.955Z,26.70
2022-07-28T02:14:35.269Z,26.70
2022-07-28T02:17:13.194Z,26.70
2022-07-28T02:19:43.017Z,26.70
2022-07-28T02:22:11.374Z,26.70
2022-07-28T02:24:40.885Z,26.70
2022-07-28T02:27:36.122Z,26.70
2022-07-28T02:30:13.156Z,26.70
2022-07-28T02:32:58.897Z,26.70
2022-07-28T02:35:50.680Z,26.70
2022-07-28T02:38:28.268Z,26.70
2022-07-28T02:40:59.823Z,26.70
2022-07-28T02:43:49.988Z,26.70
2022-07-28T02:46:23.549Z,26.70
2022-07-28T02:48:56.854Z,26.70
2022-07-28T02:51:28.775Z,26.70
2022-07-28T02:53:57.052Z,26.70
2022-07-28T02:56:25.505Z,26.70
2022-07-28T02:58:54.399Z,26.70
2022-07-28T03:01:22.699Z,26.70
2022-07-28T03:03:51.350Z,26.70
2022-07-28T03:06:26.638Z,26.70
2022-07-28T03:08:57.599Z,26.70
2022-07-28T03:11:24.946Z,26.70
2022-07-28T03:13:52.232Z,26.70
2022-07-28T03:16:19.542Z,26.70
2022-07-28T03:18:46.649Z,26.70
2022-07-28T03:21:13.721Z,26.60
2022-07-28T03:23:44.132Z,26.70
2022-07-28T03:26:30.829Z,26.70
2022-07-28T03:28:59.606Z,26.70
2022-07-28T03:31:28.648Z,26.70
2022-07-28T03:33:56.131Z,26.70
2022-07-28T03:36:35.850Z,26.70
2022-07-28T03:39:06.618Z,26.60
2022-07-28T03:41:34.649Z,26.70
2022-07-28T03:44:03.070Z,26.60
2022-07-28T03:46:30.372Z,26.70
2022-07-28T03:48:57.531Z,26.70
2022-07-28T03:51:25.727Z,26.70
2022-07-28T03:53:52.888Z,26.70
2022-07-28T03:56:19.979Z,26.70
2022-07-28T03:58:47.279Z,26.70
2022-07-28T04:01:14.632Z,26.70
2022-07-28T04:03:43.734Z,26.70
2022-07-28T04:06:15.539Z,26.70
2022-07-28T04:08:45.217Z,26.70
2022-07-28T04:11:12.800Z,26.70
2022-07-28T04:13:40.089Z,26.70
2022-07-28T04:16:07.665Z,26.80
2022-07-28T04:18:35.673Z,26.80
2022-07-28T04:21:02.847Z,26.80
2022-07-28T04:23:30.960Z,26.80
2022-07-28T04:25:58.176Z,26.80
2022-07-28T04:28:25.531Z,26.80
2022-07-28T04:30:52.755Z,26.80
2022-07-28T04:33:20.138Z,26.80
2022-07-28T04:35:47.545Z,26.80
2022-07-28T04:38:15.216Z,26.80
2022-07-28T04:40:42.699Z,26.80
2022-07-28T04:43:10.563Z,26.80
2022-07-28T04:45:37.847Z,26.80
2022-07-28T04:48:05.645Z,26.80
2022-07-28T04:50:33.175Z,26.90
2022-07-28T04:53:00.356Z,26.90
2022-07-28T04:55:27.611Z,26.90
2022-07-28T04:57:54.749Z,26.90
2022-07-28T05:00:22.765Z,26.90
2022-07-28T05:02:51.553Z,26.90
2022-07-28T05:05:19.011Z,26.90
2022-07-28T05:07:46.191Z,26.90
2022-07-28T05:10:13.663Z,26.90
2022-07-28T05:12:40.898Z,26.90
2022-07-28T05:15:09.643Z,26.80
2022-07-28T05:17:37.298Z,26.70
2022-07-28T05:20:06.043Z,26.50
2022-07-28T05:22:47.165Z,26.30
2022-07-28T05:25:21.068Z,25.90
2022-07-28T05:27:49.250Z,25.50
2022-07-28T05:30:17.442Z,25.10
2022-07-28T05:32:45.773Z,24.70
2022-07-28T05:35:13.166Z,24.30
2022-07-28T05:37:40.612Z,23.90
2022-07-28T05:40:11.989Z,23.50
2022-07-28T05:42:40.153Z,23.20
2022-07-28T05:45:16.368Z,23.00
2022-07-28T05:47:49.018Z,22.80
2022-07-28T05:50:17.530Z,22.50
2022-07-28T05:52:47.078Z,22.30
2022-07-28T05:55:14.871Z,22.10
2022-07-28T05:57:42.257Z,22.00
2022-07-28T06:00:12.778Z,21.80
2022-07-28T06:02:41.340Z,21.60
2022-07-28T06:05:09.098Z,21.50
2022-07-28T06:07:42.940Z,21.40
2022-07-28T06:10:12.578Z,21.30
2022-07-28T06:12:42.213Z,21.20
2022-07-28T06:15:14.628Z,21.20
2022-07-28T06:17:42.342Z,21.20
2022-07-28T06:20:10.989Z,21.10
2022-07-28T06:22:43.361Z,21.10
2022-07-28T06:25:18.644Z,21.00
2022-07-28T06:27:46.752Z,21.00
2022-07-28T06:30:14.376Z,21.00
2022-07-28T06:32:41.853Z,21.00
2022-07-28T06:35:09.402Z,21.00
2022-07-28T06:37:36.683Z,21.00
2022-07-28T06:40:04.457Z,21.00
2022-07-28T06:42:31.873Z,21.00
2022-07-28T06:45:00.175Z,21.00
2022-07-28T06:47:27.623Z,21.00
2022-07-28T06:49:54.714Z,21.00
2022-07-28T06:52:22.326Z,21.00
2022-07-28T06:54:52.254Z,21.10
2022-07-28T06:57:22.385Z,21.10
2022-07-28T06:59:55.671Z,21.10
2022-07-28T07:02:26.398Z,21.10
2022-07-28T07:04:55.381Z,21.10
2022-07-28T07:07:23.771Z,21.10
2022-07-28T07:09:51.695Z,21.10
2022-07-28T07:12:18.888Z,21.10
2022-07-28T07:14:46.214Z,21.10
2022-07-28T07:17:13.406Z,21.10
2022-07-28T07:19:40.615Z,21.20
2022-07-28T07:22:07.730Z,21.20
2022-07-28T07:24:35.488Z,21.20
2022-07-28T07:27:02.623Z,21.30
2022-07-28T07:29:30.350Z,21.30
2022-07-28T07:31:58.796Z,21.30
2022-07-28T07:34:26.538Z,21.40
2022-07-28T07:36:53.643Z,21.40
2022-07-28T07:39:20.925Z,21.40
2022-07-28T07:41:48.094Z,21.50
2022-07-28T07:44:17.144Z,21.50
2022-07-28T07:46:44.661Z,21.50
2022-07-28T07:49:11.895Z,21.50
2022-07-28T07:51:38.997Z,21.50
2022-07-28T07:54:06.117Z,21.50
2022-07-28T07:56:35.560Z,21.60
2022-07-28T07:59:02.685Z,21.60
2022-07-28T08:01:30.028Z,21.60
2022-07-28T08:03:59.702Z,21.70
2022-07-28T08:06:28.117Z,21.70
2022-07-28T08:08:56.468Z,21.80
2022-07-28T08:11:23.842Z,21.80
2022-07-28T08:13:50.952Z,21.80
2022-07-28T08:16:18.125Z,21.90
2022-07-28T08:18:45.347Z,21.80
2022-07-28T08:21:13.395Z,21.90
2022-07-28T08:23:40.681Z,21.90
2022-07-28T08:26:08.171Z,21.80
2022-07-28T08:28:35.373Z,21.90
2022-07-28T08:31:03.777Z,21.90
2022-07-28T08:33:31.949Z,22.00
2022-07-28T08:36:00.262Z,22.00
2022-07-28T08:38:27.493Z,22.00
2022-07-28T08:40:57.372Z,22.00
2022-07-28T08:43:38.490Z,22.00
2022-07-28T08:46:07.091Z,22.10
2022-07-28T08:48:36.478Z,22.00
2022-07-28T08:51:07.488Z,22.00
2022-07-28T08:53:36.474Z,22.10
2022-07-28T08:56:06.388Z,22.10
2022-07-28T08:58:35.559Z,22.10
2022-07-28T09:01:04.194Z,22.10
2022-07-28T09:03:31.517Z,22.10
2022-07-28T09:05:58.788Z,22.10
2022-07-28T09:08:26.389Z,22.20
2022-07-28T09:10:53.806Z,22.20
2022-07-28T09:13:21.485Z,22.20
2022-07-28T09:15:49.157Z,22.20
2022-07-28T09:18:18.024Z,22.20
2022-07-28T09:20:45.608Z,22.20
2022-07-28T09:23:42.353Z,22.20
2022-07-28T09:26:12.611Z,22.20
2022-07-28T09:29:01.949Z,22.20
2022-07-28T09:31:30.754Z,22.30
2022-07-28T09:34:03.355Z,22.20
2022-07-28T09:36:38.720Z,22.20
2022-07-28T09:39:06.121Z,22.20
2022-07-28T09:41:55.318Z,22.30
2022-07-28T09:44:24.448Z,22.20
2022-07-28T09:46:51.856Z,22.20
2022-07-28T09:49:19.558Z,22.20
2022-07-28T09:52:03.769Z,22.30
2022-07-28T09:54:31.699Z,22.30
2022-07-28T09:56:58.997Z,22.30
2022-07-28T09:59:26.233Z,22.30
2022-07-28T10:01:59.931Z,22.30
2022-07-28T10:04:35.826Z,22.30
2022-07-28T10:07:15.008Z,22.30
2022-07-28T10:09:42.410Z,22.30
2022-07-28T10:12:25.000Z,22.30
2022-07-28T10:14:55.587Z,22.30
2022-07-28T10:17:35.608Z,22.30
2022-07-28T10:20:06.596Z,22.30
2022-07-28T10:22:42.927Z,22.30
2022-07-28T10:25:14.822Z,22.30
2022-07-28T10:27:46.037Z,22.20
2022-07-28T10:30:14.372Z,22.20
2022-07-28T10:32:43.969Z,22.20
2022-07-28T10:35:17.246Z,22.10
2022-07-28T10:37:53.721Z,22.10
2022-07-28T10:40:26.824Z,22.10
2022-07-28T10:42:53.978Z,22.00
2022-07-28T10:45:22.085Z,22.00
2022-07-28T10:47:49.857Z,22.00
2022-07-28T10:50:18.339Z,22.00
2022-07-28T10:52:49.962Z,22.00
2022-07-28T10:55:48.095Z,21.90
2022-07-28T10:58:29.508Z,21.90
2022-07-28T11:01:04.710Z,21.90
2022-07-28T11:03:45.028Z,21.90
2022-07-28T11:06:35.833Z,21.90
2022-07-28T11:09:21.557Z,21.90
2022-07-28T11:11:53.794Z,21.90
2022-07-28T11:14:37.680Z,21.90
2022-07-28T11:17:19.891Z,21.80
2022-07-28T11:20:16.946Z,21.90
2022-07-28T11:22:43.786Z,21.90
2022-07-28T11:25:19.021Z,21.90
2022-07-28T11:28:00.062Z,21.90
2022-07-28T11:30:50.452Z,22.00
2022-07-28T11:33:17.870Z,22.00
2022-07-28T11:35:57.606Z,22.00
2022-07-28T11:38:26.440Z,22.10
2022-07-28T11:40:56.312Z,22.10
2022-07-28T11:43:37.701Z,22.10
2022-07-28T11:46:26.815Z,22.20
2022-07-28T11:49:16.929Z,22.20
2022-07-28T11:52:08.434Z,22.20
2022-07-28T11:54:37.046Z,22.40
2022-07-28T11:57:05.166Z,22.50
2022-07-28T11:59:44.527Z,22.80
2022-07-28T12:02:19.218Z,23.00
2022-07-28T12:04:54.267Z,23.10
2022-07-28T12:07:33.370Z,23.20
2022-07-28T12:10:01.586Z,23.20
2022-07-28T12:12:29.246Z,23.10
2022-07-28T12:14:57.543Z,23.00
2022-07-28T12:17:33.326Z,22.90
2022-07-28T12:20:11.474Z,22.80
2022-07-28T12:22:54.267Z,22.70
2022-07-28T12:25:21.470Z,22.60
2022-07-28T12:27:49.972Z,22.50
2022-07-28T12:30:26.962Z,22.50
2022-07-28T12:32:56.499Z,22.40
2022-07-28T12:35:25.221Z,22.40
2022-07-28T12:37:52.689Z,22.40
2022-07-28T12:40:27.695Z,22.40
2022-07-28T12:42:54.997Z,22.30
2022-07-28T12:45:22.321Z,22.30
2022-07-28T12:47:49.573Z,22.20
2022-07-28T12:50:20.131Z,22.20
2022-07-28T12:53:10.262Z,22.20
2022-07-28T12:55:38.896Z,22.20
2022-07-28T12:58:07.318Z,22.20
2022-07-28T13:00:36.711Z,22.20
2022-07-28T13:03:25.684Z,22.20
2022-07-28T13:06:03.911Z,22.20
2022-07-28T13:08:46.264Z,22.10
2022-07-28T13:11:42.621Z,22.10
2022-07-28T13:14:03.971Z,22.00
2022-07-28T13:16:31.252Z,22.00
2022-07-28T13:19:04.637Z,22.00
2022-07-28T13:21:58.707Z,22.00
2022-07-28T13:24:29.197Z,22.00
2022-07-28T13:26:57.193Z,21.90
2022-07-28T13:29:24.534Z,22.00
2022-07-28T13:31:54.853Z,21.90
2022-07-28T13:34:22.529Z,21.90
2022-07-28T13:36:49.819Z,21.90
2022-07-28T13:39:17.080Z,21.90
2022-07-28T13:41:57.209Z,21.90
2022-07-28T13:44:28.037Z,21.90
2022-07-28T13:46:56.565Z,21.90
2022-07-28T13:49:24.278Z,21.80
2022-07-28T13:51:51.708Z,21.90
2022-07-28T13:54:20.926Z,21.90
2022-07-28T13:56:48.696Z,22.00
2022-07-28T13:59:17.019Z,22.00
2022-07-28T14:01:49.696Z,22.00
2022-07-28T14:04:19.084Z,22.00
2022-07-28T14:06:49.055Z,22.10
2022-07-28T14:09:18.305Z,22.10
2022-07-28T14:11:49.944Z,22.10
2022-07-28T14:14:25.055Z,22.10
2022-07-28T14:16:54.342Z,22.10
2022-07-28T14:19:39.188Z,22.10
2022-07-28T14:22:13.112Z,22.10
2022-07-28T14:24:42.904Z,22.10
2022-07-28T14:27:11.423Z,22.10
2022-07-28T14:29:39.528Z,22.00
2022-07-28T14:32:07.386Z,22.00
2022-07-28T14:34:35.000Z,22.00
2022-07-28T14:37:08.618Z,22.00
2022-07-28T14:39:37.553Z,22.00
2022-07-28T14:42:05.787Z,22.00
2022-07-28T14:44:33.389Z,22.00
2022-07-28T14:47:00.548Z,22.00
2022-07-28T14:49:28.354Z,22.00
2022-07-28T14:51:57.584Z,22.00
2022-07-28T14:54:25.082Z,22.00
2022-07-28T14:56:52.178Z,22.00
2022-07-28T14:59:20.370Z,22.10
2022-07-28T15:01:48.822Z,22.30
2022-07-28T15:04:17.442Z,22.50
2022-07-28T15:06:45.062Z,22.60
2022-07-28T15:09:12.180Z,22.80
2022-07-28T15:11:41.352Z,23.00
2022-07-28T15:14:08.783Z,23.20
2022-07-28T15:16:36.254Z,23.40
2022-07-28T15:19:03.524Z,23.60
2022-07-28T15:21:36.180Z,23.80
2022-07-28T15:24:04.382Z,24.00
2022-07-28T15:26:31.511Z,24.20
2022-07-28T15:28:58.687Z,24.40
2022-07-28T15:31:26.278Z,24.50
2022-07-28T15:33:58.160Z,24.70
2022-07-28T15:36:26.310Z,24.90
2022-07-28T15:38:54.453Z,25.10
2022-07-28T15:41:21.629Z,25.20
2022-07-28T15:43:49.037Z,25.40
2022-07-28T15:46:16.726Z,25.50
2022-07-28T15:48:44.971Z,25.70
2022-07-28T15:51:12.179Z,25.80
2022-07-28T15:53:39.582Z,26.00
2022-07-28T15:56:06.878Z,26.10
2022-07-28T15:58:35.275Z,26.20
2022-07-28T16:01:02.374Z,26.40
2022-07-28T16:03:30.470Z,26.50
2022-07-28T16:05:58.945Z,26.60
2022-07-28T16:08:26.814Z,26.70
2022-07-28T16:10:55.161Z,26.90
2022-07-28T16:13:34.280Z,26.90
2022-07-28T16:16:07.048Z,27.00
2022-07-28T16:18:35.001Z,27.10
2022-07-28T16:21:02.457Z,27.20
2022-07-28T16:23:29.870Z,27.30
2022-07-28T16:25:56.969Z,27.40
2022-07-28T16:28:24.064Z,27.50
2022-07-28T16:30:51.196Z,27.60
2022-07-28T16:33:18.583Z,27.70
2022-07-28T16:35:46.143Z,27.80
2022-07-28T16:38:13.807Z,27.90
2022-07-28T16:40:41.050Z,28.00
2022-07-28T16:43:08.137Z,28.10
2022-07-28T16:45:36.121Z,28.10
2022-07-28T16:48:04.141Z,28.20
2022-07-28T16:50:32.375Z,28.30
2022-07-28T16:53:00.577Z,28.40
2022-07-28T16:55:27.888Z,28.40
2022-07-28T16:57:54.995Z,28.50
2022-07-28T17:00:23.941Z,28.50
2022-07-28T17:02:51.085Z,28.60
2022-07-28T17:05:18.352Z,28.70
2022-07-28T17:07:46.300Z,28.80
2022-07-28T17:10:15.450Z,28.80
2022-07-28T17:12:49.704Z,28.90
2022-07-28T17:15:19.522Z,28.90
2022-07-28T17:17:50.887Z,29.00
2022-07-28T17:20:19.066Z,29.00
2022-07-28T17:22:46.212Z,29.00
2022-07-28T17:25:43.628Z,29.10
2022-07-28T17:28:00.711Z,29.10
2022-07-28T17:30:29.720Z,29.10
2022-07-28T17:32:59.284Z,29.10
2022-07-28T17:35:31.664Z,29.20
2022-07-28T17:38:02.644Z,29.10
2022-07-28T17:40:29.820Z,29.20
2022-07-28T17:42:56.993Z,29.20
2022-07-28T17:45:24.551Z,29.10
2022-07-28T17:47:51.974Z,29.10
2022-07-28T17:50:19.935Z,29.10
2022-07-28T17:52:47.537Z,29.10
2022-07-28T17:55:37.907Z,29.00
2022-07-28T17:58:29.436Z,29.00
2022-07-28T18:01:10.641Z,28.90
2022-07-28T18:03:56.928Z,28.80
2022-07-28T18:06:25.742Z,28.80
2022-07-28T18:08:52.814Z,28.80
2022-07-28T18:11:20.138Z,28.70
2022-07-28T18:14:03.656Z,28.70
2022-07-28T18:16:32.354Z,28.70
2022-07-28T18:18:59.396Z,28.60
2022-07-28T18:21:26.834Z,28.60
2022-07-28T18:23:56.230Z,28.60
2022-07-28T18:26:23.456Z,28.60
2022-07-28T18:28:50.820Z,28.60
2022-07-28T18:31:18.030Z,28.60
2022-07-28T18:33:45.205Z,28.60
2022-07-28T18:36:12.376Z,28.50
2022-07-28T18:38:40.150Z,28.50
2022-07-28T18:41:07.365Z,28.50
2022-07-28T18:43:34.496Z,28.50
2022-07-28T18:46:04.414Z,28.50
2022-07-28T18:48:31.597Z,28.50
2022-07-28T18:50:59.040Z,28.50
2022-07-28T18:53:26.818Z,28.50
2022-07-28T18:55:54.259Z,28.40
2022-07-28T18:58:21.359Z,28.40
2022-07-28T19:00:49.031Z,28.40
2022-07-28T19:03:16.274Z,28.40
2022-07-28T19:05:46.189Z,28.40
2022-07-28T19:08:13.743Z,28.40
2022-07-28T19:10:40.996Z,28.40
2022-07-28T19:13:09.313Z,28.40
2022-07-28T19:15:41.826Z,28.30
2022-07-28T19:18:11.553Z,28.30
2022-07-28T19:20:44.789Z,28.30
2022-07-28T19:23:11.903Z,28.30
2022-07-28T19:25:39.933Z,28.30
2022-07-28T19:28:07.087Z,28.30
2022-07-28T19:30:35.154Z,28.20
2022-07-28T19:33:03.198Z,28.20
2022-07-28T19:35:30.496Z,28.20
2022-07-28T19:38:00.141Z,28.20
2022-07-28T19:40:31.966Z,28.20
2022-07-28T19:43:00.270Z,28.10
2022-07-28T19:45:27.584Z,28.10
2022-07-28T19:47:54.858Z,28.10
2022-07-28T19:50:22.141Z,28.10
2022-07-28T19:52:49.347Z,28.10
2022-07-28T19:55:17.622Z,28.10
2022-07-28T19:57:48.192Z,28.00
2022-07-28T20:00:17.668Z,28.00
2022-07-28T20:02:46.128Z,28.00
2022-07-28T20:05:13.806Z,28.00
2022-07-28T20:07:40.958Z,28.00
2022-07-28T20:10:08.366Z,27.90
2022-07-28T20:12:36.856Z,27.90
2022-07-28T20:15:06.148Z,27.90
2022-07-28T20:17:39.040Z,27.90
2022-07-28T20:20:09.814Z,27.80
2022-07-28T20:22:39.474Z,27.80
2022-07-28T20:25:09.453Z,27.80
2022-07-28T20:27:39.869Z,27.80
2022-07-28T20:30:09.315Z,27.80
2022-07-28T20:32:37.588Z,27.80
2022-07-28T20:35:05.954Z,27.70
2022-07-28T20:37:37.197Z,27.70
2022-07-28T20:40:06.427Z,27.70
2022-07-28T20:42:33.726Z,27.60
2022-07-28T20:45:00.879Z,27.60
2022-07-28T20:47:28.256Z,27.60
2022-07-28T20:49:55.749Z,27.60
2022-07-28T20:52:23.608Z,27.60
2022-07-28T20:54:54.506Z,27.60
2022-07-28T20:57:23.257Z,27.60
2022-07-28T20:59:52.273Z,27.60
2022-07-28T21:02:24.484Z,27.50
2022-07-28T21:04:52.166Z,27.50
2022-07-28T21:07:59.543Z,27.50
2022-07-28T21:10:08.529Z,27.50
2022-07-28T21:12:37.339Z,27.50
2022-07-28T21:15:08.684Z,27.40
2022-07-28T21:17:36.105Z,27.40
2022-07-28T21:20:03.824Z,27.40
2022-07-28T21:22:31.127Z,27.40
2022-07-28T21:24:59.261Z,27.40
2022-07-28T21:27:26.477Z,27.40
2022-07-28T21:32:19.503Z,27.30
2022-07-28T21:34:46.782Z,27.30
2022-07-28T21:37:14.302Z,27.30
2022-07-28T21:39:41.480Z,27.30
2022-07-28T21:42:09.551Z,27.30
2022-07-28T21:44:39.803Z,27.30
2022-07-28T21:47:07.194Z,27.30
2022-07-28T21:49:35.299Z,27.20
2022-07-28T21:52:02.430Z,27.30
2022-07-28T21:54:29.666Z,27.30
2022-07-28T21:56:56.899Z,27.20
2022-07-28T21:59:24.116Z,27.30
2022-07-28T22:01:51.491Z,27.30
2022-07-28T22:04:19.588Z,27.20
2022-07-28T22:06:47.072Z,27.20
2022-07-28T22:09:15.200Z,27.20
2022-07-28T22:11:42.685Z,27.20
2022-07-28T22:14:10.254Z,27.20
2022-07-28T22:16:37.656Z,27.20
2022-07-28T22:19:05.055Z,27.20
2022-07-28T22:21:32.194Z,27.20
2022-07-28T22:23:59.320Z,27.20
2022-07-28T22:26:26.577Z,27.20
2022-07-28T22:28:53.727Z,27.20
2022-07-28T22:31:21.287Z,27.20
2022-07-28T22:33:49.486Z,27.10
2022-07-28T22:36:16.654Z,27.10
2022-07-28T22:38:43.732Z,27.10
2022-07-28T22:41:10.960Z,27.10
2022-07-28T22:43:38.113Z,27.10
2022-07-28T22:46:05.258Z,27.10
2022-07-28T22:48:32.517Z,27.10
2022-07-28T22:50:59.692Z,27.10
2022-07-28T22:53:26.918Z,27.10
2022-07-28T22:55:54.099Z,27.10
2022-07-28T22:58:21.267Z,27.10
2022-07-28T23:00:49.103Z,27.10
2022-07-28T23:03:17.127Z,27.10
2022-07-28T23:05:44.300Z,27.10
2022-07-28T23:08:11.412Z,27.00
2022-07-28T23:10:40.177Z,27.00
2022-07-28T23:13:07.527Z,27.00
2022-07-28T23:15:41.134Z,27.00
2022-07-28T23:18:14.347Z,27.00
2022-07-28T23:20:41.862Z,27.00
2022-07-28T23:23:10.059Z,27.00
2022-07-28T23:25:39.673Z,27.00
2022-07-28T23:28:07.895Z,27.00
2022-07-28T23:30:38.474Z,27.00
2022-07-28T23:33:06.273Z,27.00
2022-07-28T23:35:35.702Z,27.00
2022-07-28T23:38:04.107Z,27.00
2022-07-28T23:40:31.346Z,27.00
2022-07-28T23:42:58.632Z,27.00
2022-07-28T23:45:25.785Z,27.00
2022-07-28T23:47:58.210Z,27.00
2022-07-28T23:50:26.631Z,27.00
2022-07-28T23:52:53.845Z,27.00
2022-07-28T23:55:21.152Z,27.00
2022-07-28T23:57:48.361Z,27.00
